sensor_id;sensor_type;location;lat;lon;timestamp;P1;durP1;ratioP1;P2;durP2;ratioP2
73508;SDS011;61750;55.036;73.312;2022-09-28T00:04:17;4.95;;;1.88;;
73508;SDS011;61750;55.036;73.312;2022-09-28T00:06:43;4.57;;;2.35;;
73508;SDS011;61750;55.036;73.312;2022-09-28T00:09:21;5.25;;;2.63;;
73508;SDS011;61750;55.036;73.312;2022-09-28T00:14:18;3.80;;;2.20;;
73508;SDS011;61750;55.036;73.312;2022-09-28T00:19:17;4.63;;;2.30;;
73508;SDS011;61750;55.036;73.312;2022-09-28T00:24:17;6.15;;;2.40;;
73508;SDS011;61750;55.036;73.312;2022-09-28T00:34:21;3.60;;;1.92;;
73508;SDS011;61750;55.036;73.312;2022-09-28T00:36:48;4.15;;;2.20;;
73508;SDS011;61750;55.036;73.312;2022-09-28T00:52:18;4.75;;;2.40;;
73508;SDS011;61750;55.036;73.312;2022-09-28T00:55:03;4.13;;;2.13;;
73508;SDS011;61750;55.036;73.312;2022-09-28T00:57:33;4.13;;;2.05;;
73508;SDS011;61750;55.036;73.312;2022-09-28T01:00:01;4.95;;;2.13;;
73508;SDS011;61750;55.036;73.312;2022-09-28T01:02:38;4.43;;;2.30;;
73508;SDS011;61750;55.036;73.312;2022-09-28T01:05:06;5.00;;;2.40;;
73508;SDS011;61750;55.036;73.312;2022-09-28T01:07:35;5.07;;;2.60;;
73508;SDS011;61750;55.036;73.312;2022-09-28T01:10:09;5.72;;;2.90;;
73508;SDS011;61750;55.036;73.312;2022-09-28T01:12:35;5.70;;;2.75;;
73508;SDS011;61750;55.036;73.312;2022-09-28T01:15:01;4.40;;;2.47;;
73508;SDS011;61750;55.036;73.312;2022-09-28T01:17:38;4.55;;;2.45;;
73508;SDS011;61750;55.036;73.312;2022-09-28T01:26:53;4.18;;;2.88;;
73508;SDS011;61750;55.036;73.312;2022-09-28T01:29:30;4.10;;;2.50;;
73508;SDS011;61750;55.036;73.312;2022-09-28T01:32:08;5.20;;;2.67;;
73508;SDS011;61750;55.036;73.312;2022-09-28T01:34:45;5.15;;;2.58;;
73508;SDS011;61750;55.036;73.312;2022-09-28T01:37:36;4.00;;;2.00;;
73508;SDS011;61750;55.036;73.312;2022-09-28T01:40:22;4.32;;;1.88;;
73508;SDS011;61750;55.036;73.312;2022-09-28T01:42:53;4.25;;;2.30;;
73508;SDS011;61750;55.036;73.312;2022-09-28T01:45:36;3.60;;;1.80;;
73508;SDS011;61750;55.036;73.312;2022-09-28T01:48:16;5.55;;;2.50;;
73508;SDS011;61750;55.036;73.312;2022-09-28T01:50:48;3.47;;;1.63;;
73508;SDS011;61750;55.036;73.312;2022-09-28T01:53:33;2.78;;;1.67;;
73508;SDS011;61750;55.036;73.312;2022-09-28T01:56:13;4.43;;;2.40;;
73508;SDS011;61750;55.036;73.312;2022-09-28T01:58:48;5.25;;;2.10;;
73508;SDS011;61750;55.036;73.312;2022-09-28T02:01:54;4.70;;;2.65;;
73508;SDS011;61750;55.036;73.312;2022-09-28T02:09:43;4.70;;;2.60;;
73508;SDS011;61750;55.036;73.312;2022-09-28T02:12:20;5.07;;;2.83;;
73508;SDS011;61750;55.036;73.312;2022-09-28T02:17:19;5.20;;;2.90;;
73508;SDS011;61750;55.036;73.312;2022-09-28T02:19:46;5.63;;;2.45;;
73508;SDS011;61750;55.036;73.312;2022-09-28T02:24:58;6.57;;;3.53;;
73508;SDS011;61750;55.036;73.312;2022-09-28T02:27:41;7.85;;;2.80;;
73508;SDS011;61750;55.036;73.312;2022-09-28T02:30:12;4.82;;;2.40;;
73508;SDS011;61750;55.036;73.312;2022-09-28T02:32:39;5.50;;;2.92;;
73508;SDS011;61750;55.036;73.312;2022-09-28T02:35:13;8.00;;;3.20;;
73508;SDS011;61750;55.036;73.312;2022-09-28T02:37:43;10.05;;;3.50;;
73508;SDS011;61750;55.036;73.312;2022-09-28T02:40:15;8.57;;;2.47;;
73508;SDS011;61750;55.036;73.312;2022-09-28T02:57:09;6.55;;;2.90;;
73508;SDS011;61750;55.036;73.312;2022-09-28T03:00:04;6.53;;;2.92;;
73508;SDS011;61750;55.036;73.312;2022-09-28T03:05:52;6.55;;;2.70;;
73508;SDS011;61750;55.036;73.312;2022-09-28T03:08:37;6.55;;;3.30;;
73508;SDS011;61750;55.036;73.312;2022-09-28T03:11:55;5.57;;;2.39;;
73508;SDS011;61750;55.036;73.312;2022-09-28T03:14:24;7.05;;;2.20;;
73508;SDS011;61750;55.036;73.312;2022-09-28T03:16:54;14.70;;;3.20;;
73508;SDS011;61750;55.036;73.312;2022-09-28T03:19:22;7.47;;;2.97;;
73508;SDS011;61750;55.036;73.312;2022-09-28T03:21:54;2.20;;;1.30;;
73508;SDS011;61750;55.036;73.312;2022-09-28T03:24:20;3.38;;;1.60;;
73508;SDS011;61750;55.036;73.312;2022-09-28T03:29:17;6.05;;;1.92;;
73508;SDS011;61750;55.036;73.312;2022-09-28T03:31:54;1.60;;;0.80;;
73508;SDS011;61750;55.036;73.312;2022-09-28T03:34:29;4.22;;;2.30;;
73508;SDS011;61750;55.036;73.312;2022-09-28T03:36:55;9.27;;;2.55;;
73508;SDS011;61750;55.036;73.312;2022-09-28T03:39:21;6.28;;;2.10;;
73508;SDS011;61750;55.036;73.312;2022-09-28T03:44:28;5.70;;;2.28;;
73508;SDS011;61750;55.036;73.312;2022-09-28T03:46:55;2.20;;;1.70;;
73508;SDS011;61750;55.036;73.312;2022-09-28T03:49:21;9.18;;;2.55;;
73508;SDS011;61750;55.036;73.312;2022-09-28T03:54:17;5.45;;;2.40;;
73508;SDS011;61750;55.036;73.312;2022-09-28T03:59:17;6.53;;;2.38;;
73508;SDS011;61750;55.036;73.312;2022-09-28T04:04:17;6.72;;;2.35;;
73508;SDS011;61750;55.036;73.312;2022-09-28T04:06:44;5.60;;;2.17;;
73508;SDS011;61750;55.036;73.312;2022-09-28T04:09:10;5.65;;;2.33;;
73508;SDS011;61750;55.036;73.312;2022-09-28T04:14:17;5.43;;;2.20;;
73508;SDS011;61750;55.036;73.312;2022-09-28T04:19:20;6.07;;;2.10;;
73508;SDS011;61750;55.036;73.312;2022-09-28T04:22:22;7.97;;;5.43;;
73508;SDS011;61750;55.036;73.312;2022-09-28T04:24:48;5.72;;;2.05;;
73508;SDS011;61750;55.036;73.312;2022-09-28T04:27:26;7.03;;;2.28;;
73508;SDS011;61750;55.036;73.312;2022-09-28T04:30:16;5.35;;;2.03;;
73508;SDS011;61750;55.036;73.312;2022-09-28T04:32:47;10.13;;;2.70;;
73508;SDS011;61750;55.036;73.312;2022-09-28T04:35:23;8.93;;;2.50;;
73508;SDS011;61750;55.036;73.312;2022-09-28T04:37:49;5.72;;;2.58;;
73508;SDS011;61750;55.036;73.312;2022-09-28T04:40:15;7.90;;;2.72;;
73508;SDS011;61750;55.036;73.312;2022-09-28T04:42:42;7.97;;;2.38;;
73508;SDS011;61750;55.036;73.312;2022-09-28T04:45:08;6.00;;;2.63;;
73508;SDS011;61750;55.036;73.312;2022-09-28T04:47:38;8.10;;;2.55;;
73508;SDS011;61750;55.036;73.312;2022-09-28T04:50:37;6.65;;;2.65;;
73508;SDS011;61750;55.036;73.312;2022-09-28T04:53:15;10.63;;;3.67;;
73508;SDS011;61750;55.036;73.312;2022-09-28T04:55:41;13.57;;;4.22;;
73508;SDS011;61750;55.036;73.312;2022-09-28T04:58:07;7.57;;;2.90;;
73508;SDS011;61750;55.036;73.312;2022-09-28T05:00:38;9.45;;;3.30;;
73508;SDS011;61750;55.036;73.312;2022-09-28T05:03:16;9.40;;;2.40;;
73508;SDS011;61750;55.036;73.312;2022-09-28T05:06:24;15.54;;;6.16;;
73508;SDS011;61750;55.036;73.312;2022-09-28T05:08:58;6.70;;;3.00;;
73508;SDS011;61750;55.036;73.312;2022-09-28T05:11:51;10.48;;;2.33;;
73508;SDS011;61750;55.036;73.312;2022-09-28T05:14:24;9.85;;;3.30;;
73508;SDS011;61750;55.036;73.312;2022-09-28T05:16:56;6.80;;;3.10;;
73508;SDS011;61750;55.036;73.312;2022-09-28T05:19:25;7.22;;;3.33;;
73508;SDS011;61750;55.036;73.312;2022-09-28T05:21:53;2.40;;;1.40;;
73508;SDS011;61750;55.036;73.312;2022-09-28T05:24:33;9.95;;;4.07;;
73508;SDS011;61750;55.036;73.312;2022-09-28T05:26:59;9.00;;;2.45;;
73508;SDS011;61750;55.036;73.312;2022-09-28T05:29:25;19.38;;;4.47;;
73508;SDS011;61750;55.036;73.312;2022-09-28T05:32:30;8.63;;;3.83;;
73508;SDS011;61750;55.036;73.312;2022-09-28T05:35:25;5.10;;;2.80;;
73508;SDS011;61750;55.036;73.312;2022-09-28T05:37:53;8.82;;;3.00;;
73508;SDS011;61750;55.036;73.312;2022-09-28T05:40:22;7.65;;;4.32;;
73508;SDS011;61750;55.036;73.312;2022-09-28T05:42:48;9.15;;;4.63;;
73508;SDS011;61750;55.036;73.312;2022-09-28T05:45:15;11.52;;;4.40;;
73508;SDS011;61750;55.036;73.312;2022-09-28T05:47:43;11.18;;;3.95;;
73508;SDS011;61750;55.036;73.312;2022-09-28T05:50:15;4.95;;;2.60;;
73508;SDS011;61750;55.036;73.312;2022-09-28T05:52:42;9.30;;;2.97;;
73508;SDS011;61750;55.036;73.312;2022-09-28T05:55:09;8.25;;;3.58;;
73508;SDS011;61750;55.036;73.312;2022-09-28T05:57:36;10.25;;;3.80;;
73508;SDS011;61750;55.036;73.312;2022-09-28T06:00:04;8.63;;;4.60;;
73508;SDS011;61750;55.036;73.312;2022-09-28T06:02:49;7.15;;;3.20;;
73508;SDS011;61750;55.036;73.312;2022-09-28T06:05:27;4.50;;;2.60;;
73508;SDS011;61750;55.036;73.312;2022-09-28T06:07:54;10.35;;;4.97;;
73508;SDS011;61750;55.036;73.312;2022-09-28T06:10:22;8.80;;;3.00;;
73508;SDS011;61750;55.036;73.312;2022-09-28T06:12:53;17.65;;;4.13;;
73508;SDS011;61750;55.036;73.312;2022-09-28T06:15:20;7.03;;;3.50;;
73508;SDS011;61750;55.036;73.312;2022-09-28T06:17:57;9.80;;;4.00;;
73508;SDS011;61750;55.036;73.312;2022-09-28T06:20:42;10.80;;;5.03;;
73508;SDS011;61750;55.036;73.312;2022-09-28T06:23:24;11.45;;;4.25;;
73508;SDS011;61750;55.036;73.312;2022-09-28T06:25:50;9.00;;;4.40;;
73508;SDS011;61750;55.036;73.312;2022-09-28T06:28:17;9.00;;;4.13;;
73508;SDS011;61750;55.036;73.312;2022-09-28T06:30:44;15.98;;;6.57;;
73508;SDS011;61750;55.036;73.312;2022-09-28T06:33:14;19.33;;;6.90;;
73508;SDS011;61750;55.036;73.312;2022-09-28T06:35:41;20.50;;;8.07;;
73508;SDS011;61750;55.036;73.312;2022-09-28T06:38:08;22.42;;;7.75;;
73508;SDS011;61750;55.036;73.312;2022-09-28T06:40:34;25.15;;;8.05;;
73508;SDS011;61750;55.036;73.312;2022-09-28T06:43:03;23.90;;;8.77;;
73508;SDS011;61750;55.036;73.312;2022-09-28T06:45:53;29.27;;;10.38;;
73508;SDS011;61750;55.036;73.312;2022-09-28T06:48:45;42.17;;;13.32;;
73508;SDS011;61750;55.036;73.312;2022-09-28T06:51:51;36.33;;;13.77;;
73508;SDS011;61750;55.036;73.312;2022-09-28T06:54:20;38.00;;;12.90;;
73508;SDS011;61750;55.036;73.312;2022-09-28T06:57:01;22.88;;;8.50;;
73508;SDS011;61750;55.036;73.312;2022-09-28T07:01:56;15.07;;;6.93;;
73508;SDS011;61750;55.036;73.312;2022-09-28T07:05:01;39.03;;;14.45;;
73508;SDS011;61750;55.036;73.312;2022-09-28T07:07:48;45.60;;;16.60;;
73508;SDS011;61750;55.036;73.312;2022-09-28T07:10:44;51.42;;;18.67;;
73508;SDS011;61750;55.036;73.312;2022-09-28T07:13:24;47.28;;;15.90;;
73508;SDS011;61750;55.036;73.312;2022-09-28T07:16:04;37.85;;;14.63;;
73508;SDS011;61750;55.036;73.312;2022-09-28T07:18:30;35.53;;;14.13;;
73508;SDS011;61750;55.036;73.312;2022-09-28T07:20:57;32.80;;;12.13;;
73508;SDS011;61750;55.036;73.312;2022-09-28T07:23:25;24.95;;;10.23;;
73508;SDS011;61750;55.036;73.312;2022-09-28T07:26:51;25.17;;;10.07;;
73508;SDS011;61750;55.036;73.312;2022-09-28T07:29:46;20.20;;;8.75;;
73508;SDS011;61750;55.036;73.312;2022-09-28T07:32:21;22.65;;;8.77;;
73508;SDS011;61750;55.036;73.312;2022-09-28T07:35:10;21.35;;;10.85;;
73508;SDS011;61750;55.036;73.312;2022-09-28T07:37:55;14.52;;;6.50;;
73508;SDS011;61750;55.036;73.312;2022-09-28T07:40:26;13.13;;;6.43;;
73508;SDS011;61750;55.036;73.312;2022-09-28T07:43:11;21.63;;;7.55;;
73508;SDS011;61750;55.036;73.312;2022-09-28T07:45:38;18.65;;;7.25;;
73508;SDS011;61750;55.036;73.312;2022-09-28T07:48:07;16.17;;;6.55;;
73508;SDS011;61750;55.036;73.312;2022-09-28T07:50:54;13.25;;;4.50;;
73508;SDS011;61750;55.036;73.312;2022-09-28T07:53:30;11.43;;;4.85;;
73508;SDS011;61750;55.036;73.312;2022-09-28T07:56:09;9.77;;;4.30;;
73508;SDS011;61750;55.036;73.312;2022-09-28T07:58:45;12.17;;;5.37;;
73508;SDS011;61750;55.036;73.312;2022-09-28T08:01:51;4.75;;;3.50;;
73508;SDS011;61750;55.036;73.312;2022-09-28T08:04:17;15.13;;;5.25;;
73508;SDS011;61750;55.036;73.312;2022-09-28T08:06:45;12.27;;;4.28;;
73508;SDS011;61750;55.036;73.312;2022-09-28T08:09:21;12.82;;;4.90;;
73508;SDS011;61750;55.036;73.312;2022-09-28T08:12:20;30.45;;;5.60;;
73508;SDS011;61750;55.036;73.312;2022-09-28T08:15:01;24.50;;;5.90;;
73508;SDS011;61750;55.036;73.312;2022-09-28T08:17:47;13.70;;;4.60;;
73508;SDS011;61750;55.036;73.312;2022-09-28T08:20:16;15.65;;;4.80;;
73508;SDS011;61750;55.036;73.312;2022-09-28T08:23:04;7.88;;;3.30;;
73508;SDS011;61750;55.036;73.312;2022-09-28T08:25:33;9.20;;;4.28;;
73508;SDS011;61750;55.036;73.312;2022-09-28T08:28:04;8.23;;;3.70;;
73508;SDS011;61750;55.036;73.312;2022-09-28T08:30:41;10.35;;;5.22;;
73508;SDS011;61750;55.036;73.312;2022-09-28T08:33:31;7.45;;;3.60;;
73508;SDS011;61750;55.036;73.312;2022-09-28T08:36:24;9.25;;;3.82;;
73508;SDS011;61750;55.036;73.312;2022-09-28T08:38:59;9.20;;;4.57;;
73508;SDS011;61750;55.036;73.312;2022-09-28T08:44:51;6.20;;;3.22;;
73508;SDS011;61750;55.036;73.312;2022-09-28T08:47:52;11.82;;;4.38;;
73508;SDS011;61750;55.036;73.312;2022-09-28T08:51:56;10.84;;;5.04;;
73508;SDS011;61750;55.036;73.312;2022-09-28T08:55:09;18.52;;;6.68;;
73508;SDS011;61750;55.036;73.312;2022-09-28T08:57:47;16.77;;;7.35;;
73508;SDS011;61750;55.036;73.312;2022-09-28T09:00:46;17.13;;;6.45;;
73508;SDS011;61750;55.036;73.312;2022-09-28T09:03:17;12.50;;;5.80;;
73508;SDS011;61750;55.036;73.312;2022-09-28T09:09:04;15.43;;;8.02;;
73508;SDS011;61750;55.036;73.312;2022-09-28T09:17:04;6.43;;;3.33;;
73508;SDS011;61750;55.036;73.312;2022-09-28T09:20:13;8.73;;;4.18;;
73508;SDS011;61750;55.036;73.312;2022-09-28T09:23:22;10.25;;;4.78;;
73508;SDS011;61750;55.036;73.312;2022-09-28T09:26:03;16.33;;;6.07;;
73508;SDS011;61750;55.036;73.312;2022-09-28T09:28:49;9.98;;;5.50;;
73508;SDS011;61750;55.036;73.312;2022-09-28T09:34:50;12.60;;;6.72;;
73508;SDS011;61750;55.036;73.312;2022-09-28T09:49:49;7.60;;;4.30;;
73508;SDS011;61750;55.036;73.312;2022-09-28T09:52:19;8.35;;;4.70;;
73508;SDS011;61750;55.036;73.312;2022-09-28T09:54:53;8.27;;;4.35;;
73508;SDS011;61750;55.036;73.312;2022-09-28T09:57:44;5.70;;;3.65;;
73508;SDS011;61750;55.036;73.312;2022-09-28T10:00:43;6.40;;;4.10;;
73508;SDS011;61750;55.036;73.312;2022-09-28T10:03:22;6.80;;;4.15;;
73508;SDS011;61750;55.036;73.312;2022-09-28T10:05:59;9.32;;;3.67;;
73508;SDS011;61750;55.036;73.312;2022-09-28T10:08:32;7.47;;;3.97;;
73508;SDS011;61750;55.036;73.312;2022-09-28T10:11:16;8.63;;;4.57;;
73508;SDS011;61750;55.036;73.312;2022-09-28T10:13:51;5.90;;;3.53;;
73508;SDS011;61750;55.036;73.312;2022-09-28T10:19:36;9.48;;;4.68;;
73508;SDS011;61750;55.036;73.312;2022-09-28T10:22:22;8.52;;;4.15;;
73508;SDS011;61750;55.036;73.312;2022-09-28T10:24:57;8.75;;;5.22;;
73508;SDS011;61750;55.036;73.312;2022-09-28T10:27:29;14.65;;;6.53;;
73508;SDS011;61750;55.036;73.312;2022-09-28T10:32:38;9.88;;;4.95;;
73508;SDS011;61750;55.036;73.312;2022-09-28T10:37:50;11.32;;;5.25;;
73508;SDS011;61750;55.036;73.312;2022-09-28T10:40:54;9.85;;;4.70;;
73508;SDS011;61750;55.036;73.312;2022-09-28T10:43:36;7.75;;;4.95;;
73508;SDS011;61750;55.036;73.312;2022-09-28T10:46:18;8.25;;;5.03;;
73508;SDS011;61750;55.036;73.312;2022-09-28T10:51:52;7.57;;;4.65;;
73508;SDS011;61750;55.036;73.312;2022-09-28T10:54:35;6.47;;;4.25;;
73508;SDS011;61750;55.036;73.312;2022-09-28T10:57:08;8.15;;;5.10;;
73508;SDS011;61750;55.036;73.312;2022-09-28T11:02:43;6.85;;;4.53;;
73508;SDS011;61750;55.036;73.312;2022-09-28T11:05:22;6.38;;;3.78;;
73508;SDS011;61750;55.036;73.312;2022-09-28T11:07:59;7.13;;;4.88;;
73508;SDS011;61750;55.036;73.312;2022-09-28T11:10:37;8.02;;;4.20;;
73508;SDS011;61750;55.036;73.312;2022-09-28T11:13:15;7.65;;;4.20;;
73508;SDS011;61750;55.036;73.312;2022-09-28T11:15:52;6.60;;;4.00;;
73508;SDS011;61750;55.036;73.312;2022-09-28T11:18:28;8.10;;;4.68;;
73508;SDS011;61750;55.036;73.312;2022-09-28T11:21:39;8.95;;;4.65;;
73508;SDS011;61750;55.036;73.312;2022-09-28T11:24:05;7.43;;;5.00;;
73508;SDS011;61750;55.036;73.312;2022-09-28T11:29:23;7.25;;;4.10;;
73508;SDS011;61750;55.036;73.312;2022-09-28T11:32:15;8.80;;;5.57;;
73508;SDS011;61750;55.036;73.312;2022-09-28T11:35:06;11.73;;;6.78;;
73508;SDS011;61750;55.036;73.312;2022-09-28T11:37:50;16.93;;;8.17;;
73508;SDS011;61750;55.036;73.312;2022-09-28T11:45:58;11.57;;;6.90;;
73508;SDS011;61750;55.036;73.312;2022-09-28T11:48:38;14.40;;;7.57;;
73508;SDS011;61750;55.036;73.312;2022-09-28T11:51:18;16.15;;;8.52;;
73508;SDS011;61750;55.036;73.312;2022-09-28T11:53:51;15.88;;;7.53;;
73508;SDS011;61750;55.036;73.312;2022-09-28T11:56:51;13.73;;;6.97;;
73508;SDS011;61750;55.036;73.312;2022-09-28T12:02:22;19.05;;;8.15;;
73508;SDS011;61750;55.036;73.312;2022-09-28T12:05:15;13.23;;;8.02;;
73508;SDS011;61750;55.036;73.312;2022-09-28T12:07:47;11.17;;;6.37;;
73508;SDS011;61750;55.036;73.312;2022-09-28T12:14:13;11.93;;;7.00;;
73508;SDS011;61750;55.036;73.312;2022-09-28T12:16:59;5.85;;;2.85;;
73508;SDS011;61750;55.036;73.312;2022-09-28T12:19:41;10.43;;;5.50;;
73508;SDS011;61750;55.036;73.312;2022-09-28T12:22:18;9.48;;;5.25;;
73508;SDS011;61750;55.036;73.312;2022-09-28T12:24:55;8.60;;;4.78;;
73508;SDS011;61750;55.036;73.312;2022-09-28T12:30:18;11.00;;;7.13;;
73508;SDS011;61750;55.036;73.312;2022-09-28T12:33:04;10.30;;;6.28;;
73508;SDS011;61750;55.036;73.312;2022-09-28T12:56:01;10.32;;;6.10;;
73508;SDS011;61750;55.036;73.312;2022-09-28T13:12:49;8.40;;;5.20;;
73508;SDS011;61750;55.036;73.312;2022-09-28T13:20:43;8.35;;;5.43;;
73508;SDS011;61750;55.036;73.312;2022-09-28T13:28:29;13.15;;;5.68;;
73508;SDS011;61750;55.036;73.312;2022-09-28T13:30:57;8.93;;;5.72;;
73508;SDS011;61750;55.036;73.312;2022-09-28T13:33:31;10.45;;;6.53;;
73508;SDS011;61750;55.036;73.312;2022-09-28T13:36:02;12.32;;;6.55;;
73508;SDS011;61750;55.036;73.312;2022-09-28T13:41:51;8.40;;;5.63;;
73508;SDS011;61750;55.036;73.312;2022-09-28T13:44:22;10.32;;;6.47;;
73508;SDS011;61750;55.036;73.312;2022-09-28T13:47:20;11.32;;;5.97;;
73508;SDS011;61750;55.036;73.312;2022-09-28T13:53:04;12.73;;;7.97;;
73508;SDS011;61750;55.036;73.312;2022-09-28T13:55:56;13.60;;;7.85;;
73508;SDS011;61750;55.036;73.312;2022-09-28T13:59:03;11.80;;;7.95;;
73508;SDS011;61750;55.036;73.312;2022-09-28T14:13:08;19.10;;;9.83;;
73508;SDS011;61750;55.036;73.312;2022-09-28T14:15:39;15.73;;;8.45;;
73508;SDS011;61750;55.036;73.312;2022-09-28T14:18:14;14.27;;;8.13;;
73508;SDS011;61750;55.036;73.312;2022-09-28T14:20:59;22.55;;;8.13;;
73508;SDS011;61750;55.036;73.312;2022-09-28T14:23:56;18.50;;;8.50;;
73508;SDS011;61750;55.036;73.312;2022-09-28T14:29:35;12.77;;;7.68;;
73508;SDS011;61750;55.036;73.312;2022-09-28T14:34:41;16.33;;;8.82;;
73508;SDS011;61750;55.036;73.312;2022-09-28T14:37:18;15.80;;;8.57;;
73508;SDS011;61750;55.036;73.312;2022-09-28T14:40:25;10.77;;;6.15;;
73508;SDS011;61750;55.036;73.312;2022-09-28T14:43:18;12.52;;;5.85;;
73508;SDS011;61750;55.036;73.312;2022-09-28T14:54:23;11.60;;;6.90;;
73508;SDS011;61750;55.036;73.312;2022-09-28T14:57:17;9.38;;;6.07;;
73508;SDS011;61750;55.036;73.312;2022-09-28T14:59:45;12.68;;;6.57;;
73508;SDS011;61750;55.036;73.312;2022-09-28T15:02:15;10.10;;;6.72;;
73508;SDS011;61750;55.036;73.312;2022-09-28T15:07:22;8.95;;;5.72;;
73508;SDS011;61750;55.036;73.312;2022-09-28T15:15:46;11.38;;;6.95;;
73508;SDS011;61750;55.036;73.312;2022-09-28T15:21:07;12.85;;;7.95;;
73508;SDS011;61750;55.036;73.312;2022-09-28T15:23:34;18.77;;;11.85;;
73508;SDS011;61750;55.036;73.312;2022-09-28T15:26:03;27.63;;;16.85;;
73508;SDS011;61750;55.036;73.312;2022-09-28T15:28:34;38.97;;;24.35;;
73508;SDS011;61750;55.036;73.312;2022-09-28T15:31:02;44.97;;;30.00;;
73508;SDS011;61750;55.036;73.312;2022-09-28T15:33:30;48.78;;;31.08;;
73508;SDS011;61750;55.036;73.312;2022-09-28T15:36:25;36.92;;;24.28;;
73508;SDS011;61750;55.036;73.312;2022-09-28T15:38:59;34.70;;;22.60;;
73508;SDS011;61750;55.036;73.312;2022-09-28T15:41:51;32.80;;;19.70;;
73508;SDS011;61750;55.036;73.312;2022-09-28T15:47:14;18.80;;;11.40;;
73508;SDS011;61750;55.036;73.312;2022-09-28T15:50:19;38.13;;;22.08;;
73508;SDS011;61750;55.036;73.312;2022-09-28T15:52:52;27.75;;;15.90;;
73508;SDS011;61750;55.036;73.312;2022-09-28T15:55:35;21.17;;;11.23;;
73508;SDS011;61750;55.036;73.312;2022-09-28T16:00:43;16.98;;;9.18;;
73508;SDS011;61750;55.036;73.312;2022-09-28T16:03:29;16.65;;;8.35;;
73508;SDS011;61750;55.036;73.312;2022-09-28T16:16:51;10.93;;;6.35;;
73508;SDS011;61750;55.036;73.312;2022-09-28T16:19:22;14.07;;;7.60;;
73508;SDS011;61750;55.036;73.312;2022-09-28T16:22:14;14.23;;;8.13;;
73508;SDS011;61750;55.036;73.312;2022-09-28T16:24:53;13.10;;;6.88;;
73508;SDS011;61750;55.036;73.312;2022-09-28T16:35:24;9.55;;;5.38;;
73508;SDS011;61750;55.036;73.312;2022-09-28T16:37:55;11.07;;;6.68;;
73508;SDS011;61750;55.036;73.312;2022-09-28T16:40:22;12.85;;;6.90;;
73508;SDS011;61750;55.036;73.312;2022-09-28T16:42:48;14.20;;;6.05;;
73508;SDS011;61750;55.036;73.312;2022-09-28T16:45:19;15.63;;;9.32;;
73508;SDS011;61750;55.036;73.312;2022-09-28T16:47:46;14.40;;;7.30;;
73508;SDS011;61750;55.036;73.312;2022-09-28T16:50:17;15.25;;;7.68;;
73508;SDS011;61750;55.036;73.312;2022-09-28T16:52:45;17.52;;;8.55;;
73508;SDS011;61750;55.036;73.312;2022-09-28T16:55:31;17.13;;;9.55;;
73508;SDS011;61750;55.036;73.312;2022-09-28T16:57:57;18.13;;;9.75;;
73508;SDS011;61750;55.036;73.312;2022-09-28T17:00:23;13.88;;;7.93;;
73508;SDS011;61750;55.036;73.312;2022-09-28T17:03:00;16.45;;;7.97;;
73508;SDS011;61750;55.036;73.312;2022-09-28T17:05:34;20.90;;;9.63;;
73508;SDS011;61750;55.036;73.312;2022-09-28T17:08:02;15.18;;;8.05;;
73508;SDS011;61750;55.036;73.312;2022-09-28T17:10:34;13.57;;;8.00;;
73508;SDS011;61750;55.036;73.312;2022-09-28T17:13:07;16.25;;;8.20;;
73508;SDS011;61750;55.036;73.312;2022-09-28T17:15:35;13.65;;;7.35;;
73508;SDS011;61750;55.036;73.312;2022-09-28T17:18:01;12.02;;;6.88;;
73508;SDS011;61750;55.036;73.312;2022-09-28T17:20:33;15.27;;;7.75;;
73508;SDS011;61750;55.036;73.312;2022-09-28T17:23:04;13.63;;;7.93;;
73508;SDS011;61750;55.036;73.312;2022-09-28T17:25:30;18.20;;;8.93;;
73508;SDS011;61750;55.036;73.312;2022-09-28T17:27:57;18.67;;;9.73;;
73508;SDS011;61750;55.036;73.312;2022-09-28T17:30:24;16.15;;;8.68;;
73508;SDS011;61750;55.036;73.312;2022-09-28T17:32:50;22.08;;;10.23;;
73508;SDS011;61750;55.036;73.312;2022-09-28T17:35:17;17.38;;;8.98;;
73508;SDS011;61750;55.036;73.312;2022-09-28T17:37:44;19.85;;;10.35;;
73508;SDS011;61750;55.036;73.312;2022-09-28T17:40:20;20.13;;;10.05;;
73508;SDS011;61750;55.036;73.312;2022-09-28T17:42:53;21.25;;;10.55;;
73508;SDS011;61750;55.036;73.312;2022-09-28T17:45:23;20.05;;;11.00;;
73508;SDS011;61750;55.036;73.312;2022-09-28T17:47:55;19.90;;;10.60;;
73508;SDS011;61750;55.036;73.312;2022-09-28T17:50:26;22.80;;;11.20;;
73508;SDS011;61750;55.036;73.312;2022-09-28T17:53:04;22.23;;;11.85;;
73508;SDS011;61750;55.036;73.312;2022-09-28T17:55:36;21.80;;;11.35;;
73508;SDS011;61750;55.036;73.312;2022-09-28T17:58:19;25.92;;;12.02;;
73508;SDS011;61750;55.036;73.312;2022-09-28T18:00:47;23.30;;;11.57;;
73508;SDS011;61750;55.036;73.312;2022-09-28T18:03:20;21.55;;;11.75;;
73508;SDS011;61750;55.036;73.312;2022-09-28T18:05:49;19.30;;;8.88;;
73508;SDS011;61750;55.036;73.312;2022-09-28T18:08:23;20.37;;;10.17;;
73508;SDS011;61750;55.036;73.312;2022-09-28T18:10:49;13.60;;;7.75;;
73508;SDS011;61750;55.036;73.312;2022-09-28T18:13:15;12.98;;;5.93;;
73508;SDS011;61750;55.036;73.312;2022-09-28T18:15:42;16.73;;;9.77;;
73508;SDS011;61750;55.036;73.312;2022-09-28T18:18:08;17.02;;;9.20;;
73508;SDS011;61750;55.036;73.312;2022-09-28T18:20:35;19.65;;;9.77;;
73508;SDS011;61750;55.036;73.312;2022-09-28T18:23:01;17.33;;;8.07;;
73508;SDS011;61750;55.036;73.312;2022-09-28T18:25:28;19.33;;;9.10;;
73508;SDS011;61750;55.036;73.312;2022-09-28T18:30:22;15.15;;;8.30;;
73508;SDS011;61750;55.036;73.312;2022-09-28T18:32:49;19.52;;;9.25;;
73508;SDS011;61750;55.036;73.312;2022-09-28T18:35:15;18.27;;;9.02;;
73508;SDS011;61750;55.036;73.312;2022-09-28T18:37:42;17.70;;;8.95;;
73508;SDS011;61750;55.036;73.312;2022-09-28T18:40:09;18.92;;;8.88;;
73508;SDS011;61750;55.036;73.312;2022-09-28T18:42:48;18.70;;;8.73;;
73508;SDS011;61750;55.036;73.312;2022-09-28T18:45:15;17.33;;;8.60;;
73508;SDS011;61750;55.036;73.312;2022-09-28T18:47:43;19.17;;;9.68;;
73508;SDS011;61750;55.036;73.312;2022-09-28T18:50:10;17.75;;;8.88;;
73508;SDS011;61750;55.036;73.312;2022-09-28T18:52:40;18.05;;;8.75;;
73508;SDS011;61750;55.036;73.312;2022-09-28T18:55:07;15.80;;;8.20;;
73508;SDS011;61750;55.036;73.312;2022-09-28T18:57:50;17.77;;;8.18;;
73508;SDS011;61750;55.036;73.312;2022-09-28T19:00:22;17.42;;;8.95;;
73508;SDS011;61750;55.036;73.312;2022-09-28T19:02:49;20.90;;;9.75;;
73508;SDS011;61750;55.036;73.312;2022-09-28T19:05:15;22.30;;;10.27;;
73508;SDS011;61750;55.036;73.312;2022-09-28T19:07:42;18.45;;;9.50;;
73508;SDS011;61750;55.036;73.312;2022-09-28T19:10:08;21.00;;;9.88;;
73508;SDS011;61750;55.036;73.312;2022-09-28T19:12:39;18.58;;;9.60;;
73508;SDS011;61750;55.036;73.312;2022-09-28T19:15:05;18.55;;;9.32;;
73508;SDS011;61750;55.036;73.312;2022-09-28T19:17:32;21.75;;;9.98;;
73508;SDS011;61750;55.036;73.312;2022-09-28T19:19:58;18.45;;;8.60;;
73508;SDS011;61750;55.036;73.312;2022-09-28T19:22:24;20.00;;;9.50;;
73508;SDS011;61750;55.036;73.312;2022-09-28T19:25:00;20.15;;;9.68;;
73508;SDS011;61750;55.036;73.312;2022-09-28T19:27:29;16.27;;;8.20;;
73508;SDS011;61750;55.036;73.312;2022-09-28T19:29:58;20.27;;;9.18;;
73508;SDS011;61750;55.036;73.312;2022-09-28T19:32:24;16.02;;;8.05;;
73508;SDS011;61750;55.036;73.312;2022-09-28T19:34:50;15.98;;;8.48;;
73508;SDS011;61750;55.036;73.312;2022-09-28T19:37:22;16.52;;;7.90;;
73508;SDS011;61750;55.036;73.312;2022-09-28T19:39:48;17.98;;;8.60;;